Terminal Aerodrome Forecast
Issued by NWS

Home | Current Version | Previous Version | Text Only | Print | Product List | Glossary On
Versions: 1 2 3 4 5 6 7 8 9 10 11 12 13 14 15 16 17 18 19 20 21
000
FTUS41 KILN 261100
TAFLUK
TAF
KLUK 261121Z 2612/2712 21004KT P6SM BKN080
     FM261700 22010KT P6SM SCT040 BKN250
     FM270200 22004KT P6SM VCTS BKN040CB OVC150
      TEMPO 2704/2707 2SM -TSRA OVC020CB
     FM270900 20004KT P6SM BKN100=

USA.gov is the U.S. government's official web portal to all federal, state and local government web resources and services.